Cosperville, Indiana
Current Conditions -  °F | °C
As of 9:53 PM on Sunday 21 Dec 2014 (Local Time) from KGSH Reporting Station
Haze Haze  
Wind Chill: 22°   Ceiling: Unl
Heat Index: 30°   Visibility: 6mi
Dew Point: 25°   Wind: 9mph
Humidity: 82%   Direction: 130°SE
Pressure: 30.12"   Gusts: NA
Location:  41.4818°N, 85.481°W
Report Text: KGSH 220253Z AUTO 13008KT 6SM HZ CLR M01/M04 A3012 RMK AO2 SLP210 T10111039 56007
Loading
Personal Weather Stations






























Interactive Weather Map New forecast layout! Learn more

10-Day Weather Forecast

Advertisements
Track Severe Weather on mobile